Springerton, Illinois
Current Conditions -  °F | °C
As of 12:15 PM on Tuesday 21 Oct 2014 (Local Time) from KCUL Reporting Station
Clear Clear  
Wind Chill: 66°   Ceiling: Unl
Heat Index: 66°   Visibility: 10mi
Dew Point: 47°   Wind: 7mph
Humidity: 50%   Direction: 360°N
Pressure: 30.1"   Gusts: NA
Location:  38.18°N, 88.35°W
Report Text: KCUL 211715Z AUTO 36006KT 10SM CLR 19/08 A3010 RMK AO2 T01880082
Loading
Personal Weather Stations






























Interactive Weather Map
Tropical Storm Tracking
New forecast layout! Learn more

10-Day Weather Forecast

Advertisements
Track Severe Weather on mobile